createdAt,value
2024-02-14T07:47:58.091Z,3.63
2024-02-14T07:50:24.827Z,3.25
2024-02-14T07:52:51.512Z,3.55
2024-02-14T07:55:18.238Z,3.37
2024-02-14T07:57:45.798Z,3.38
2024-02-14T08:00:14.854Z,2.83
2024-02-14T08:02:41.545Z,3.20
2024-02-14T08:05:09.695Z,3.50
2024-02-14T08:07:36.399Z,3.77
2024-02-14T08:10:03.218Z,3.35
2024-02-14T08:12:29.939Z,3.30
2024-02-14T08:14:56.653Z,3.38
2024-02-14T08:17:23.448Z,3.40
2024-02-14T08:19:50.294Z,3.63
2024-02-14T08:22:18.608Z,3.65
2024-02-14T08:24:45.300Z,3.97
2024-02-14T08:27:12.079Z,3.30
2024-02-14T08:29:38.868Z,3.38
2024-02-14T08:32:05.794Z,3.33
2024-02-14T08:34:32.632Z,3.53
2024-02-14T08:36:59.410Z,3.47
2024-02-14T08:39:27.589Z,2.80
2024-02-14T08:41:54.489Z,3.10
2024-02-14T08:44:21.269Z,3.00
2024-02-14T08:46:47.973Z,2.92
2024-02-14T08:49:15.016Z,3.72
2024-02-14T08:51:41.844Z,3.28
2024-02-14T08:54:08.644Z,3.65
2024-02-14T08:56:37.897Z,3.40
2024-02-14T08:59:05.083Z,3.00
2024-02-14T09:01:32.029Z,3.83
2024-02-14T09:03:59.025Z,3.20
2024-02-14T09:06:26.462Z,3.20
2024-02-14T09:08:53.668Z,3.00
2024-02-14T09:11:20.560Z,3.33
2024-02-14T09:13:48.734Z,3.85
2024-02-14T09:16:15.546Z,3.10
2024-02-14T09:18:42.515Z,3.35
2024-02-14T09:21:09.522Z,4.03
2024-02-14T09:23:36.312Z,3.47
2024-02-14T09:26:03.600Z,4.50
2024-02-14T09:28:30.591Z,3.95
2024-02-14T09:30:58.797Z,3.70
2024-02-14T09:33:25.724Z,4.97
2024-02-14T09:35:52.517Z,3.70
2024-02-14T09:38:19.308Z,4.70
2024-02-14T09:40:46.029Z,4.05
2024-02-14T09:43:22.677Z,3.42
2024-02-14T09:45:51.965Z,3.47
2024-02-14T09:48:22.179Z,3.30
2024-02-14T09:50:50.014Z,3.58
2024-02-14T09:53:18.068Z,3.53
2024-02-14T09:55:46.981Z,3.85
2024-02-14T09:58:14.037Z,3.40
2024-02-14T10:00:40.791Z,4.03
2024-02-14T10:03:08.310Z,3.83
2024-02-14T10:05:36.503Z,3.20
2024-02-14T10:08:04.252Z,3.25
2024-02-14T10:10:33.070Z,3.30
2024-02-14T10:12:59.778Z,2.88
2024-02-14T10:15:26.572Z,3.55
2024-02-14T10:17:53.392Z,3.42
2024-02-14T10:20:20.169Z,3.65
2024-02-14T10:22:48.241Z,3.40
2024-02-14T10:25:17.133Z,3.33
2024-02-14T10:27:43.776Z,3.35
2024-02-14T10:30:11.664Z,3.33
2024-02-14T10:32:38.830Z,5.28
2024-02-14T10:35:06.491Z,4.90
2024-02-14T10:37:33.182Z,5.60
2024-02-14T10:40:02.398Z,5.18
2024-02-14T10:42:29.106Z,3.92
2024-02-14T10:44:55.878Z,3.80
2024-02-14T10:47:27.352Z,6.27
2024-02-14T10:49:55.677Z,8.88
2024-02-14T10:52:23.458Z,10.55
2024-02-14T10:54:56.773Z,5.32
2024-02-14T10:57:25.533Z,3.58
2024-02-14T10:59:52.776Z,3.33
2024-02-14T11:02:21.203Z,3.00
2024-02-14T11:04:49.282Z,3.40
2024-02-14T11:07:18.174Z,3.55
2024-02-14T11:09:44.983Z,3.60
2024-02-14T11:12:12.315Z,3.10
2024-02-14T11:14:43.641Z,2.90
2024-02-14T11:17:11.021Z,3.25
2024-02-14T11:19:38.337Z,3.30
2024-02-14T11:22:12.308Z,2.88
2024-02-14T11:24:39.010Z,2.93
2024-02-14T11:27:19.602Z,3.08
2024-02-14T11:29:54.633Z,3.30
2024-02-14T11:32:23.464Z,2.92
2024-02-14T11:34:54.724Z,2.80
2024-02-14T11:37:21.362Z,2.60
2024-02-14T11:39:48.111Z,2.90
2024-02-14T11:42:15.397Z,2.88
2024-02-14T11:44:42.440Z,3.17
2024-02-14T11:47:10.970Z,3.03
2024-02-14T11:49:38.028Z,2.67
2024-02-14T11:52:04.862Z,2.80
2024-02-14T11:54:31.727Z,2.80
2024-02-14T11:56:58.453Z,2.92
2024-02-14T11:59:25.180Z,2.97
2024-02-14T12:01:51.836Z,2.20
2024-02-14T12:04:20.235Z,2.35
2024-02-14T12:06:47.223Z,2.40
2024-02-14T12:09:14.324Z,2.50
2024-02-14T12:11:42.819Z,2.88
2024-02-14T12:14:10.218Z,2.27
2024-02-14T12:16:37.940Z,2.33
2024-02-14T12:19:05.861Z,2.63
2024-02-14T12:21:36.001Z,1.77
2024-02-14T12:24:02.923Z,2.50
2024-02-14T12:26:31.316Z,2.40
2024-02-14T12:28:58.068Z,2.45
2024-02-14T12:31:25.128Z,2.58
2024-02-14T12:33:51.992Z,2.40
2024-02-14T12:36:18.732Z,2.35
2024-02-14T12:38:47.168Z,2.07
2024-02-14T12:41:13.882Z,1.75
2024-02-14T12:43:40.621Z,1.60
2024-02-14T12:46:07.322Z,1.50
2024-02-14T12:48:34.188Z,1.63
2024-02-14T12:51:01.285Z,1.17
2024-02-14T12:53:28.184Z,1.20
2024-02-14T12:55:56.508Z,1.30
2024-02-14T12:58:23.519Z,1.70
2024-02-14T13:00:50.314Z,1.30
2024-02-14T13:03:18.687Z,1.37
2024-02-14T13:05:46.245Z,2.22
2024-02-14T13:08:13.141Z,2.17
2024-02-14T13:10:39.848Z,1.60
2024-02-14T13:13:07.979Z,1.60
2024-02-14T13:15:34.652Z,1.60
2024-02-14T13:18:01.853Z,1.30
2024-02-14T13:20:29.494Z,1.63
2024-02-14T13:22:56.283Z,1.40
2024-02-14T13:25:23.003Z,1.73
2024-02-14T13:27:49.694Z,1.40
2024-02-14T13:30:17.980Z,1.40
2024-02-14T13:32:44.798Z,2.05
2024-02-14T13:35:11.603Z,2.17
2024-02-14T13:37:38.391Z,2.30
2024-02-14T13:40:06.306Z,2.10
2024-02-14T13:42:33.001Z,1.58
2024-02-14T13:44:59.672Z,1.20
2024-02-14T13:47:27.654Z,1.25
2024-02-14T13:49:54.397Z,1.10
2024-02-14T13:52:21.117Z,1.23
2024-02-14T13:54:47.792Z,1.30
2024-02-14T13:57:14.537Z,2.15
2024-02-14T13:59:41.206Z,1.73
2024-02-14T14:02:07.892Z,2.65
2024-02-14T14:04:36.157Z,1.63
2024-02-14T14:07:03.097Z,1.70
2024-02-14T14:09:29.878Z,2.60
2024-02-14T14:11:56.803Z,2.92
2024-02-14T14:14:23.469Z,1.42
2024-02-14T14:16:50.170Z,1.57
2024-02-14T14:19:16.939Z,1.60
2024-02-14T14:21:45.088Z,1.70
2024-02-14T14:24:11.826Z,1.70
2024-02-14T14:26:38.570Z,1.38
2024-02-14T14:29:05.284Z,1.97
2024-02-14T14:31:33.936Z,2.03
2024-02-14T14:34:00.869Z,1.60
2024-02-14T14:36:27.861Z,2.50
2024-02-14T14:38:55.999Z,1.63
2024-02-14T14:41:22.752Z,1.70
2024-02-14T14:43:49.467Z,1.50
2024-02-14T14:46:16.984Z,1.55
2024-02-14T14:48:43.810Z,2.10
2024-02-14T14:51:10.735Z,1.60
2024-02-14T14:53:37.726Z,1.80
2024-02-14T14:56:07.109Z,2.17
2024-02-14T14:58:33.750Z,2.08
2024-02-14T15:01:01.250Z,2.10
2024-02-14T15:03:28.162Z,1.83
2024-02-14T15:05:55.042Z,1.53
2024-02-14T15:08:21.935Z,2.47
2024-02-14T15:10:48.586Z,2.35
2024-02-14T15:13:16.596Z,2.85
2024-02-14T15:15:43.278Z,3.72
2024-02-14T15:18:10.109Z,6.07
2024-02-14T15:20:36.952Z,7.90
2024-02-14T15:23:03.734Z,4.57
2024-02-14T15:25:30.475Z,3.13
2024-02-14T15:27:57.219Z,3.17
2024-02-14T15:30:25.781Z,6.67
2024-02-14T15:32:52.616Z,5.28
2024-02-14T15:35:19.824Z,4.13
2024-02-14T15:37:46.646Z,3.67
2024-02-14T15:40:13.889Z,3.80
2024-02-14T15:42:40.579Z,3.30
2024-02-14T15:45:08.505Z,2.85
2024-02-14T15:47:36.780Z,3.20
2024-02-14T15:50:04.214Z,2.65
2024-02-14T15:52:30.904Z,1.80
2024-02-14T15:54:57.648Z,1.37
2024-02-14T15:57:24.438Z,1.80
2024-02-14T15:59:51.164Z,1.90
2024-02-14T16:02:17.923Z,1.65
2024-02-14T16:04:46.006Z,1.95
2024-02-14T16:07:12.763Z,2.70
2024-02-14T16:09:39.518Z,2.05
2024-02-14T16:12:06.664Z,4.47
2024-02-14T16:14:33.542Z,4.45
2024-02-14T16:17:01.615Z,9.77
